Time;durP1;ratioP1;P1;durP2;ratioP2;P2;SDS_P1;SDS_P2;PMS_P1;PMS_P2;Temp;Humidity;BMP_temperature;BMP_pressure;BME280_temperature;BME280_humidity;BME280_pressure;Samples;Min_cycle;Max_cycle;Signal;HPM_P1;HPM_P2
2022/08/27 00:00:08;;;;;;;7.50;2.08;;;16.40;99.90;;;;;;5028936;28;20045;-74
2022/08/27 00:02:34;;;;;;;6.80;1.73;;;16.40;99.90;;;;;;5029936;28;20041;-74
2022/08/27 00:05:02;;;;;;;6.18;1.85;;;16.50;99.90;;;;;;5012552;28;20049;-74
2022/08/27 00:07:28;;;;;;;8.55;2.10;;;16.50;99.90;;;;;;5038166;28;20052;-74
2022/08/27 00:09:54;;;;;;;7.13;1.70;;;16.50;99.90;;;;;;5028546;28;20041;-75
2022/08/27 00:12:20;;;;;;;11.55;1.83;;;16.60;99.90;;;;;;5028622;28;20510;-75
2022/08/27 00:14:46;;;;;;;8.32;1.80;;;16.60;99.90;;;;;;5028758;28;20037;-75
2022/08/27 00:17:12;;;;;;;7.30;1.80;;;16.60;99.90;;;;;;5012278;28;20045;-75
2022/08/27 00:19:39;;;;;;;10.05;2.05;;;16.60;99.90;;;;;;5030260;28;20399;-75
2022/08/27 00:22:06;;;;;;;7.60;1.90;;;16.60;99.90;;;;;;5028484;28;20037;-75
2022/08/27 00:24:33;;;;;;;6.03;1.75;;;16.70;99.90;;;;;;5012009;28;20056;-75
2022/08/27 00:26:58;;;;;;;8.82;2.03;;;16.70;99.90;;;;;;5030129;28;20048;-75
2022/08/27 00:29:25;;;;;;;5.45;1.70;;;16.70;99.90;;;;;;5006434;28;20041;-75
2022/08/27 00:31:52;;;;;;;6.38;1.83;;;16.70;99.90;;;;;;5011887;28;20073;-75
2022/08/27 00:34:18;;;;;;;8.27;1.75;;;17.50;99.90;;;;;;4992546;28;20092;-75
2022/08/27 00:36:44;;;;;;;5.97;1.65;;;16.80;99.90;;;;;;4992170;28;20042;-75
2022/08/27 00:39:11;;;;;;;7.68;1.65;;;16.80;99.90;;;;;;5008737;28;20038;-74
2022/08/27 00:41:38;;;;;;;6.93;1.70;;;16.80;99.90;;;;;;4992435;28;20541;-75
2022/08/27 00:44:05;;;;;;;7.25;1.70;;;16.80;99.90;;;;;;5009504;28;20050;-74
2022/08/27 00:46:44;;;;;;;5.82;1.70;;;16.80;99.90;;;;;;5008904;28;20057;-74
2022/08/27 00:49:23;;;;;;;6.43;1.95;;;16.80;99.90;;;;;;5008200;28;20034;-74
2022/08/27 00:52:40;;;;;;;8.10;1.88;;;16.90;99.90;;;;;;5009851;28;20038;-74
2022/08/27 00:55:15;;;;;;;5.70;1.65;;;16.80;99.90;;;;;;5005969;28;20046;-74
2022/08/27 00:57:44;;;;;;;9.05;2.00;;;16.80;99.90;;;;;;4992546;28;20383;-75
2022/08/27 01:00:15;;;;;;;4.47;1.80;;;16.80;99.90;;;;;;4992444;28;20042;-74
2022/08/27 01:02:42;;;;;;;6.22;1.70;;;16.80;99.90;;;;;;4997543;28;20042;-74
2022/08/27 01:05:19;;;;;;;7.07;1.88;;;16.80;99.90;;;;;;4996515;28;20076;-75
2022/08/27 01:07:48;;;;;;;6.82;1.70;;;16.70;99.90;;;;;;4995854;28;20497;-75
2022/08/27 01:10:18;;;;;;;6.78;1.85;;;16.70;99.90;;;;;;5013579;28;20064;-75
2022/08/27 01:12:45;;;;;;;7.25;1.75;;;16.70;99.90;;;;;;5021507;28;20037;-75
2022/08/27 01:15:14;;;;;;;7.85;1.80;;;17.50;99.90;;;;;;5031954;28;20607;-75
2022/08/27 01:17:41;;;;;;;5.35;1.67;;;16.60;99.90;;;;;;5015606;28;20488;-75
2022/08/27 01:20:14;;;;;;;6.32;2.03;;;16.60;99.90;;;;;;5032047;28;20048;-75
2022/08/27 01:23:09;;;;;;;8.18;1.80;;;16.60;99.90;;;;;;5033046;28;20055;-75
2022/08/27 01:25:35;;;;;;;8.30;1.67;;;16.50;99.90;;;;;;5012649;28;20385;-74
2022/08/27 01:28:03;;;;;;;6.63;2.00;;;16.50;99.90;;;;;;5022040;28;20072;-75
2022/08/27 01:30:30;;;;;;;6.65;2.08;;;16.40;99.90;;;;;;4996013;28;20038;-75
2022/08/27 01:32:56;;;;;;;9.30;1.83;;;16.40;99.90;;;;;;5011727;28;20073;-75
2022/08/27 01:35:23;;;;;;;7.50;2.10;;;16.30;99.90;;;;;;5012221;28;20042;-74
2022/08/27 01:37:52;;;;;;;8.07;1.98;;;16.30;99.90;;;;;;5011518;28;20045;-74
2022/08/27 01:40:19;;;;;;;8.95;1.70;;;16.20;99.90;;;;;;5012983;28;20033;-74
2022/08/27 01:42:52;;;;;;;7.40;1.77;;;16.20;99.90;;;;;;5011880;28;20057;-74
2022/08/27 01:45:21;;;;;;;7.25;1.80;;;16.20;99.90;;;;;;5011703;28;20049;-75
2022/08/27 01:47:47;;;;;;;6.78;1.80;;;16.20;99.90;;;;;;5011299;28;20042;-74
2022/08/27 01:50:35;;;;;;;6.78;2.08;;;16.20;99.90;;;;;;5011664;28;20041;-75
2022/08/27 01:53:05;;;;;;;6.72;1.83;;;16.20;99.90;;;;;;5011322;28;20033;-75
2022/08/27 01:55:31;;;;;;;6.70;1.80;;;16.10;99.90;;;;;;4999752;28;20401;-75
2022/08/27 01:57:56;;;;;;;6.57;1.85;;;16.10;99.90;;;;;;5011544;28;20037;-75
2022/08/27 02:00:30;;;;;;;6.50;2.00;;;16.10;99.90;;;;;;4978890;28;20113;-75
2022/08/27 02:02:57;;;;;;;6.82;1.90;;;16.10;99.90;;;;;;5008192;28;20072;-75
2022/08/27 02:05:24;;;;;;;7.35;1.98;;;16.10;99.90;;;;;;5014852;28;20178;-74
2022/08/27 02:07:50;;;;;;;8.23;1.80;;;16.10;99.90;;;;;;4999906;28;20034;-75
2022/08/27 02:10:20;;;;;;;7.60;1.80;;;16.10;99.90;;;;;;4978898;28;20050;-74
2022/08/27 02:12:46;;;;;;;8.63;2.10;;;16.00;99.90;;;;;;5024296;28;20048;-75
2022/08/27 02:15:13;;;;;;;9.40;1.80;;;16.00;99.90;;;;;;5014301;28;20037;-75
2022/08/27 02:17:39;;;;;;;6.30;1.85;;;16.00;99.90;;;;;;5030846;28;20091;-75
2022/08/27 02:20:08;;;;;;;7.32;2.00;;;15.90;99.90;;;;;;5032261;28;20045;-75
2022/08/27 02:22:34;;;;;;;6.78;1.70;;;15.90;99.90;;;;;;5030969;28;20052;-75
2022/08/27 02:25:00;;;;;;;7.05;2.30;;;15.90;99.90;;;;;;5030730;28;20041;-75
2022/08/27 02:27:27;;;;;;;7.80;1.98;;;15.80;99.90;;;;;;5032356;28;20044;-74
2022/08/27 02:29:54;;;;;;;7.57;2.03;;;15.90;99.90;;;;;;5030739;28;20112;-74
2022/08/27 02:32:21;;;;;;;5.65;1.60;;;15.80;99.90;;;;;;5014131;28;20135;-75
2022/08/27 02:34:46;;;;;;;8.07;2.28;;;15.80;99.90;;;;;;5031724;28;20037;-74
2022/08/27 02:37:13;;;;;;;6.03;1.90;;;15.80;99.90;;;;;;5031580;28;20408;-75
2022/08/27 02:39:39;;;;;;;6.65;1.70;;;15.80;99.90;;;;;;5031838;28;20052;-75
2022/08/27 02:42:04;;;;;;;7.88;2.00;;;15.80;99.90;;;;;;5030273;28;20466;-74
2022/08/27 02:44:30;;;;;;;8.32;1.90;;;15.80;99.90;;;;;;5015158;28;20054;-74
2022/08/27 02:46:57;;;;;;;7.57;2.10;;;15.70;99.90;;;;;;4994109;28;20045;-74
2022/08/27 02:49:23;;;;;;;7.03;1.70;;;15.70;99.90;;;;;;5011471;28;20535;-74
2022/08/27 02:51:53;;;;;;;6.00;2.10;;;15.70;99.90;;;;;;4994193;28;20046;-74
2022/08/27 02:54:19;;;;;;;6.82;2.00;;;15.70;99.90;;;;;;5010198;28;20052;-74
2022/08/27 02:56:45;;;;;;;6.72;1.67;;;14.70;99.90;;;;;;4994385;28;20042;-74
2022/08/27 02:59:10;;;;;;;10.32;2.08;;;15.70;99.90;;;;;;5011225;28;20048;-74
2022/08/27 03:01:36;;;;;;;6.50;1.70;;;15.70;99.90;;;;;;4994268;28;20045;-74
2022/08/27 03:04:02;;;;;;;8.15;1.65;;;15.70;99.90;;;;;;4977574;28;20046;-74
2022/08/27 03:06:29;;;;;;;7.05;1.67;;;15.70;99.90;;;;;;5010390;28;20113;-75
2022/08/27 03:08:55;;;;;;;7.80;1.80;;;15.70;99.90;;;;;;5009660;28;20193;-75
2022/08/27 03:11:22;;;;;;;6.72;1.70;;;15.70;99.90;;;;;;5014915;28;20052;-74
2022/08/27 03:13:48;;;;;;;8.57;1.98;;;15.70;99.90;;;;;;5031108;28;20076;-75
2022/08/27 03:16:13;;;;;;;7.00;2.00;;;15.70;99.90;;;;;;5013430;28;20077;-74
2022/08/27 03:18:39;;;;;;;8.80;2.00;;;15.70;99.90;;;;;;5030712;28;20048;-74
2022/08/27 03:21:08;;;;;;;5.68;1.80;;;15.70;99.90;;;;;;5013155;28;20053;-75
2022/08/27 03:23:34;;;;;;;7.45;1.88;;;15.70;99.90;;;;;;5012949;28;20123;-74
2022/08/27 03:26:04;;;;;;;6.35;1.88;;;15.70;99.90;;;;;;5030249;28;20064;-74
2022/08/27 03:28:32;;;;;;;8.27;1.90;;;15.70;99.90;;;;;;4998966;28;20119;-74
2022/08/27 03:31:01;;;;;;;7.07;1.92;;;15.70;99.90;;;;;;5011036;28;20068;-74
2022/08/27 03:33:29;;;;;;;9.20;1.90;;;15.60;99.90;;;;;;5009434;28;20038;-74
2022/08/27 03:35:55;;;;;;;7.20;2.10;;;15.60;99.90;;;;;;5010971;28;20131;-75
2022/08/27 03:38:21;;;;;;;7.15;2.10;;;15.60;99.90;;;;;;5009672;28;20447;-74
2022/08/27 03:40:48;;;;;;;9.00;2.20;;;15.60;99.90;;;;;;5009785;28;20107;-74
2022/08/27 03:43:15;;;;;;;7.82;2.30;;;15.50;99.90;;;;;;5009352;28;20294;-74
2022/08/27 03:45:45;;;;;;;8.38;2.60;;;15.50;99.90;;;;;;4993157;28;20050;-74
2022/08/27 03:48:12;;;;;;;7.90;2.25;;;15.50;99.90;;;;;;5010691;28;20073;-74
2022/08/27 03:50:41;;;;;;;8.10;2.25;;;15.50;99.90;;;;;;5009882;28;20112;-74
2022/08/27 03:53:08;;;;;;;7.13;2.40;;;15.50;99.90;;;;;;5009436;28;20092;-74
2022/08/27 03:55:34;;;;;;;7.20;2.00;;;15.50;99.90;;;;;;5009520;28;20042;-74
2022/08/27 03:58:00;;;;;;;6.45;1.90;;;15.50;99.90;;;;;;5009058;28;20065;-75
2022/08/27 04:00:26;;;;;;;8.20;2.20;;;15.50;99.90;;;;;;4992722;28;20066;-74
2022/08/27 04:02:53;;;;;;;6.85;2.00;;;15.50;99.90;;;;;;4992915;28;20065;-75
2022/08/27 04:05:20;;;;;;;8.45;2.17;;;15.50;99.90;;;;;;5022863;28;20041;-75
2022/08/27 04:07:47;;;;;;;7.10;1.92;;;15.50;99.90;;;;;;5004006;28;20111;-75
2022/08/27 04:10:14;;;;;;;8.65;2.17;;;15.50;99.90;;;;;;4976551;28;20042;-75
2022/08/27 04:12:41;;;;;;;9.88;2.20;;;15.50;99.90;;;;;;5029595;28;20044;-75
2022/08/27 04:15:09;;;;;;;6.38;1.95;;;15.40;99.90;;;;;;5029061;28;20462;-75
2022/08/27 04:17:35;;;;;;;6.78;1.95;;;15.40;99.90;;;;;;5012193;28;20037;-75
2022/08/27 04:20:01;;;;;;;9.25;2.05;;;15.30;99.90;;;;;;5028871;28;20121;-74
2022/08/27 04:22:27;;;;;;;9.00;2.30;;;15.30;99.90;;;;;;5029960;28;20041;-74
2022/08/27 04:24:53;;;;;;;8.52;2.20;;;15.30;99.90;;;;;;5012225;28;20048;-74
2022/08/27 04:27:20;;;;;;;7.43;2.20;;;15.30;99.90;;;;;;5012366;28;20407;-75
2022/08/27 04:29:46;;;;;;;7.63;1.92;;;15.20;99.90;;;;;;5030099;28;20183;-74
2022/08/27 04:32:12;;;;;;;8.35;2.20;;;15.20;99.90;;;;;;5029571;28;20044;-75
2022/08/27 04:34:38;;;;;;;9.25;2.10;;;15.20;99.90;;;;;;5030019;28;20037;-75
2022/08/27 04:37:04;;;;;;;7.28;1.83;;;15.20;99.90;;;;;;5011836;28;20048;-74
2022/08/27 04:39:31;;;;;;;7.78;2.22;;;15.20;99.90;;;;;;5028257;28;20045;-74
2022/08/27 04:41:59;;;;;;;6.88;1.88;;;15.20;99.90;;;;;;5029506;28;20041;-76
2022/08/27 04:44:31;;;;;;;9.50;1.92;;;15.20;99.90;;;;;;5011845;28;20575;-74
2022/08/27 04:47:00;;;;;;;7.85;2.08;;;15.20;99.90;;;;;;5013787;28;20129;-74
2022/08/27 04:49:27;;;;;;;7.78;2.05;;;15.20;99.90;;;;;;5008731;28;20045;-75
2022/08/27 04:51:54;;;;;;;6.18;1.80;;;15.20;99.90;;;;;;5006784;28;20041;-75
2022/08/27 04:54:21;;;;;;;9.90;2.20;;;15.20;99.90;;;;;;5028478;28;20048;-74
2022/08/27 04:56:47;;;;;;;8.45;1.85;;;15.20;99.90;;;;;;5014859;28;20515;-75
2022/08/27 04:59:13;;;;;;;7.38;2.05;;;15.20;99.90;;;;;;5008395;28;20120;-75
2022/08/27 05:01:40;;;;;;;7.15;1.80;;;16.20;99.90;;;;;;5009610;28;20053;-75
2022/08/27 05:04:07;;;;;;;6.32;1.88;;;15.20;99.90;;;;;;5008410;28;20100;-75
2022/08/27 05:06:33;;;;;;;10.50;2.25;;;15.20;99.90;;;;;;5009897;28;20077;-75
2022/08/27 05:08:59;;;;;;;10.35;2.35;;;15.30;99.90;;;;;;5009433;28;20084;-74
2022/08/27 05:11:31;;;;;;;5.15;1.60;;;15.30;99.90;;;;;;5020341;28;20473;-75
2022/08/27 05:13:57;;;;;;;7.90;2.28;;;15.40;99.90;;;;;;5011535;28;20411;-75
2022/08/27 05:16:24;;;;;;;9.88;2.47;;;15.40;99.90;;;;;;5028305;28;20037;-75
2022/08/27 05:18:51;;;;;;;9.50;2.15;;;15.50;99.90;;;;;;5027898;28;20581;-74
2022/08/27 05:21:20;;;;;;;6.35;1.77;;;15.60;99.90;;;;;;5027972;28;20041;-75
2022/08/27 05:23:46;;;;;;;10.25;2.25;;;15.70;99.90;;;;;;5027566;28;20054;-74
2022/08/27 05:26:13;;;;;;;8.80;2.00;;;15.70;99.90;;;;;;5011513;28;20431;-74
2022/08/27 05:28:39;;;;;;;7.72;1.70;;;15.80;99.90;;;;;;5012675;28;20037;-74
2022/08/27 05:31:07;;;;;;;7.05;1.90;;;15.90;99.90;;;;;;5010132;28;20040;-75
2022/08/27 05:33:33;;;;;;;6.90;1.92;;;15.90;99.90;;;;;;4991677;28;20053;-75
2022/08/27 05:36:00;;;;;;;8.02;1.90;;;16.00;99.90;;;;;;5008394;28;20081;-76
2022/08/27 05:38:29;;;;;;;7.80;2.10;;;16.10;99.90;;;;;;5008192;28;20046;-75
2022/08/27 05:41:15;;;;;;;8.77;2.30;;;16.20;99.90;;;;;;5008119;28;20481;-74
2022/08/27 05:43:42;;;;;;;8.52;2.17;;;16.30;99.90;;;;;;5007739;28;20058;-75
2022/08/27 05:46:11;;;;;;;7.45;2.15;;;16.30;99.90;;;;;;5020448;28;20120;-75
2022/08/27 05:48:38;;;;;;;8.27;2.00;;;16.40;99.90;;;;;;5030776;28;20423;-75
2022/08/27 05:51:19;;;;;;;8.07;2.00;;;16.20;99.90;;;;;;5031382;28;20041;-75
2022/08/27 05:53:45;;;;;;;9.18;2.15;;;16.60;99.90;;;;;;5008841;28;20046;-74
2022/08/27 05:56:20;;;;;;;7.22;1.90;;;16.70;99.90;;;;;;4979035;28;20404;-75
2022/08/27 06:01:35;;;;;;;8.88;2.17;;;17.00;99.90;;;;;;5011608;28;20054;-74
2022/08/27 06:04:03;;;;;;;9.80;2.58;;;17.20;99.90;;;;;;5011294;28;20057;-74
2022/08/27 06:06:28;;;;;;;8.13;2.10;;;17.30;99.90;;;;;;5011374;28;20045;-74
2022/08/27 06:08:54;;;;;;;9.75;2.20;;;17.40;99.90;;;;;;5012273;28;20042;-75
2022/08/27 06:11:21;;;;;;;6.85;1.98;;;17.50;99.90;;;;;;5011424;28;20041;-75
2022/08/27 06:13:47;;;;;;;9.15;1.98;;;17.50;99.90;;;;;;5011134;28;20055;-74
2022/08/27 06:16:16;;;;;;;10.05;1.85;;;17.60;99.90;;;;;;4995060;28;20053;-74
2022/08/27 06:18:44;;;;;;;8.73;2.20;;;17.60;99.90;;;;;;4994934;28;20046;-75
2022/08/27 06:21:11;;;;;;;12.15;2.00;;;17.60;99.90;;;;;;5011382;28;20077;-74
2022/08/27 06:23:37;;;;;;;6.35;1.77;;;17.60;99.90;;;;;;4999308;28;20427;-74
2022/08/27 06:26:09;;;;;;;7.95;1.90;;;17.60;99.90;;;;;;5010933;28;20095;-74
2022/08/27 06:28:35;;;;;;;6.70;1.90;;;17.70;99.90;;;;;;4994475;28;20044;-75
2022/08/27 06:31:07;;;;;;;7.57;2.28;;;17.60;99.90;;;;;;4994670;28;20047;-75
2022/08/27 06:33:33;;;;;;;9.25;2.30;;;17.70;99.90;;;;;;4997364;28;20396;-75
2022/08/27 06:36:04;;;;;;;10.60;1.92;;;17.70;99.90;;;;;;5011312;28;20038;-73
2022/08/27 06:38:30;;;;;;;6.95;2.08;;;17.70;99.90;;;;;;5010698;28;20436;-75
2022/08/27 06:40:57;;;;;;;9.13;1.98;;;17.70;99.90;;;;;;5011974;28;20524;-74
2022/08/27 06:43:23;;;;;;;6.82;1.83;;;17.80;99.90;;;;;;4994121;28;20079;-75
2022/08/27 06:45:51;;;;;;;11.10;1.90;;;17.80;99.90;;;;;;5010509;28;20076;-74
2022/08/27 06:48:17;;;;;;;6.85;1.77;;;;;;;;;;5011396;28;20121;-74
2022/08/27 06:50:44;;;;;;;9.27;1.95;;;17.90;99.90;;;;;;5010775;28;20076;-75
2022/08/27 06:53:10;;;;;;;6.93;1.85;;;17.90;99.90;;;;;;5011410;28;20038;-75
2022/08/27 06:55:41;;;;;;;8.90;2.28;;;17.90;99.90;;;;;;5010442;28;20488;-74
2022/08/27 06:58:07;;;;;;;6.10;1.90;;;18.00;99.90;;;;;;5010278;28;20038;-74
2022/08/27 07:00:33;;;;;;;7.80;2.00;;;18.00;99.90;;;;;;4992957;28;20136;-75
2022/08/27 07:03:00;;;;;;;8.40;1.95;;;18.10;99.90;;;;;;4977541;28;20041;-74
2022/08/27 07:05:26;;;;;;;6.80;1.92;;;18.10;99.90;;;;;;4977939;28;20134;-75
2022/08/27 07:07:52;;;;;;;10.40;2.08;;;18.20;99.90;;;;;;5010016;28;20383;-75
2022/08/27 07:10:18;;;;;;;8.85;2.00;;;18.20;99.90;;;;;;5020537;28;20072;-75
2022/08/27 07:12:44;;;;;;;7.57;2.08;;;18.20;99.90;;;;;;5013012;28;20512;-74
2022/08/27 07:15:10;;;;;;;7.68;1.90;;;18.30;99.90;;;;;;5030212;28;20052;-74
2022/08/27 07:17:36;;;;;;;10.07;2.17;;;18.40;99.90;;;;;;5013559;28;20442;-74
2022/08/27 07:20:03;;;;;;;11.20;2.22;;;18.60;99.90;;;;;;4996858;28;20041;-74
2022/08/27 07:22:28;;;;;;;7.43;2.05;;;18.80;99.90;;;;;;5013228;28;20041;-75
2022/08/27 07:24:54;;;;;;;8.95;1.83;;;19.10;99.90;;;;;;5029363;28;20047;-74
2022/08/27 07:27:22;;;;;;;7.85;2.05;;;19.30;99.90;;;;;;4992403;28;20042;-74
2022/08/27 07:29:48;;;;;;;7.70;1.92;;;19.50;99.90;;;;;;5009490;28;20038;-74
2022/08/27 07:32:14;;;;;;;11.98;2.67;;;19.60;99.90;;;;;;5009791;28;20269;-76
2022/08/27 07:34:40;;;;;;;5.38;1.63;;;19.50;99.90;;;;;;4977212;28;20046;-75
2022/08/27 07:37:06;;;;;;;9.20;1.98;;;19.40;99.90;;;;;;5011133;28;20128;-75
2022/08/27 07:39:32;;;;;;;8.63;1.90;;;19.20;99.90;;;;;;4993173;28;20416;-75
2022/08/27 07:44:42;;;;;;;8.82;1.90;;;18.90;99.90;;;;;;5009363;28;20049;-75
2022/08/27 07:47:07;;;;;;;9.07;2.30;;;19.00;99.90;;;;;;5010521;28;20058;-74
2022/08/27 07:49:34;;;;;;;8.93;2.25;;;19.20;99.90;;;;;;4992676;28;20092;-75
2022/08/27 07:52:01;;;;;;;8.48;2.22;;;19.40;99.90;;;;;;4992837;28;20042;-75
2022/08/27 07:54:27;;;;;;;9.02;1.98;;;19.50;99.90;;;;;;4993187;28;20042;-75
2022/08/27 07:56:54;;;;;;;8.48;1.55;;;19.50;99.90;;;;;;4977375;28;20492;-74
2022/08/27 07:59:19;;;;;;;11.23;2.20;;;18.80;99.90;;;;;;5009120;28;20057;-75
2022/08/27 08:01:47;;;;;;;9.90;1.95;;;19.30;99.90;;;;;;5009435;28;20046;-75
2022/08/27 08:04:14;;;;;;;9.60;2.15;;;19.30;99.90;;;;;;5009162;28;20459;-75
2022/08/27 08:06:40;;;;;;;10.13;2.15;;;19.30;99.90;;;;;;5008840;28;20139;-75
2022/08/27 08:09:06;;;;;;;10.30;2.13;;;19.40;99.90;;;;;;5008733;28;20093;-75
2022/08/27 08:11:33;;;;;;;9.27;2.17;;;19.60;99.90;;;;;;5009886;28;20038;-75
2022/08/27 08:14:00;;;;;;;8.18;1.75;;;19.60;99.90;;;;;;5008983;28;20045;-75
2022/08/27 08:16:26;;;;;;;9.38;2.05;;;19.60;99.90;;;;;;4993083;28;20034;-74
2022/08/27 08:18:52;;;;;;;9.43;2.03;;;19.60;99.90;;;;;;4992524;28;20054;-74
2022/08/27 08:21:17;;;;;;;8.15;1.63;;;19.50;99.90;;;;;;4983340;28;20049;-74
2022/08/27 08:23:48;;;;;;;11.75;2.03;;;19.50;99.90;;;;;;5028384;28;20040;-74
2022/08/27 08:26:13;;;;;;;12.20;2.08;;;19.50;99.90;;;;;;5012551;28;20053;-74
2022/08/27 08:28:40;;;;;;;11.30;2.40;;;19.40;99.90;;;;;;5012115;28;20041;-74
2022/08/27 08:31:06;;;;;;;10.77;2.17;;;19.50;99.90;;;;;;5028554;28;20038;-75
2022/08/27 08:33:32;;;;;;;9.57;1.70;;;19.50;99.90;;;;;;5028255;28;20053;-75
2022/08/27 08:36:10;;;;;;;10.35;1.88;;;19.60;99.90;;;;;;5011818;28;20452;-74
2022/08/27 08:38:39;;;;;;;8.68;2.30;;;19.60;99.90;;;;;;5028092;28;20045;-75
2022/08/27 08:41:22;;;;;;;8.10;2.08;;;19.60;99.90;;;;;;5028393;28;20172;-76
2022/08/27 08:43:50;;;;;;;16.27;2.40;;;19.70;99.90;;;;;;5011599;28;20107;-75
2022/08/27 08:46:36;;;;;;;8.52;1.80;;;19.60;99.90;;;;;;5019420;28;20460;-75
2022/08/27 08:49:25;;;;;;;6.65;1.88;;;19.90;99.90;;;;;;5008347;28;20420;-75
2022/08/27 08:51:54;;;;;;;8.52;1.70;;;20.00;99.90;;;;;;5009750;28;20096;-74
2022/08/27 08:54:23;;;;;;;11.82;2.00;;;20.20;99.90;;;;;;4979558;28;20461;-75
2022/08/27 08:57:06;;;;;;;7.15;1.80;;;20.20;99.90;;;;;;5008379;28;20042;-75
2022/08/27 08:59:44;;;;;;;9.73;1.90;;;20.10;99.90;;;;;;5009626;28;20073;-75
2022/08/27 09:02:13;;;;;;;9.65;1.83;;;20.10;99.90;;;;;;5008268;28;20066;-75
2022/08/27 09:04:40;;;;;;;10.40;2.42;;;20.00;99.90;;;;;;4992329;28;20509;-75
2022/08/27 09:07:26;;;;;;;8.00;1.92;;;20.00;99.90;;;;;;4992285;28;21156;-75
2022/08/27 09:09:59;;;;;;;6.53;1.80;;;20.10;99.90;;;;;;4991976;28;20046;-73
2022/08/27 09:12:29;;;;;;;8.82;2.30;;;20.10;99.90;;;;;;5009744;28;20042;-74
2022/08/27 09:15:07;;;;;;;9.43;2.28;;;20.10;99.90;;;;;;5009556;28;20501;-74
2022/08/27 09:17:34;;;;;;;8.98;2.00;;;20.00;99.90;;;;;;4997167;28;20038;-75
2022/08/27 09:20:00;;;;;;;8.07;1.80;;;19.90;99.90;;;;;;4975973;28;20049;-75
2022/08/27 09:23:06;;;;;;;6.72;1.63;;;19.90;99.90;;;;;;4998172;28;20559;-76
2022/08/27 09:25:36;;;;;;;8.07;1.90;;;19.90;99.90;;;;;;5031931;28;20329;-75
2022/08/27 09:29:14;;;;;;;7.15;2.00;;;19.80;99.90;;;;;;5022883;28;20404;-73
2022/08/27 09:31:02;;;;;;;7.55;1.77;;;19.70;99.90;;;;;;5000881;28;20451;-74
2022/08/27 09:33:27;;;;;;;;;;;19.70;99.90;;;;;;5013480;28;20038;-74
2022/08/27 09:35:53;;;;;;;9.27;1.88;;;19.60;99.90;;;;;;5012003;28;19941;-74
2022/08/27 09:38:32;;;;;;;7.97;1.95;;;19.60;99.90;;;;;;5012993;28;20048;-74
2022/08/27 09:41:01;;;;;;;12.13;2.00;;;19.60;99.90;;;;;;4995571;28;20064;-75
2022/08/27 09:43:30;;;;;;;6.72;1.50;;;19.60;99.90;;;;;;5012601;28;20066;-75
2022/08/27 09:46:20;;;;;;;9.50;1.98;;;19.50;99.90;;;;;;5012278;28;20071;-75
2022/08/27 09:48:46;;;;;;;8.82;1.73;;;19.50;99.90;;;;;;4994752;28;20507;-75
2022/08/27 09:51:16;;;;;;;8.60;1.90;;;19.60;99.90;;;;;;4995158;28;20550;-75
2022/08/27 09:53:54;;;;;;;8.68;1.75;;;19.60;99.90;;;;;;5011309;28;20037;-75
2022/08/27 09:56:28;;;;;;;10.48;1.88;;;19.80;99.90;;;;;;4995080;28;20543;-75
2022/08/27 09:58:59;;;;;;;7.93;1.90;;;19.90;99.90;;;;;;5011199;28;20088;-75
2022/08/27 10:01:28;;;;;;;8.20;1.85;;;20.00;99.90;;;;;;5012221;28;20045;-75
2022/08/27 10:04:12;;;;;;;8.80;1.95;;;20.30;99.90;;;;;;5011081;28;20511;-75
2022/08/27 10:06:44;;;;;;;8.93;2.13;;;20.30;99.90;;;;;;4994790;28;20046;-75
2022/08/27 10:09:18;;;;;;;10.35;1.80;;;20.10;99.90;;;;;;4994462;28;20050;-75
2022/08/27 10:11:58;;;;;;;10.15;2.20;;;20.00;99.90;;;;;;4994577;28;20100;-74
2022/08/27 10:14:31;;;;;;;9.02;1.90;;;19.90;99.90;;;;;;5011052;28;20088;-74
2022/08/27 10:17:03;;;;;;;8.45;1.73;;;19.90;99.90;;;;;;4994742;28;20099;-74
2022/08/27 10:20:03;;;;;;;8.37;1.77;;;20.00;99.90;;;;;;4994648;28;20041;-75
2022/08/27 10:22:44;;;;;;;7.35;1.60;;;20.00;99.90;;;;;;4997682;28;20281;-75
2022/08/27 10:25:35;;;;;;;6.95;1.80;;;20.00;99.90;;;;;;5010824;28;20492;-75
2022/08/27 10:28:25;;;;;;;7.05;1.63;;;20.00;99.90;;;;;;5010437;28;20096;-74
2022/08/27 10:31:30;;;;;;;9.52;1.98;;;20.10;99.90;;;;;;5010967;28;20042;-75
2022/08/27 10:34:33;;;;;;;10.30;1.90;;;20.10;99.90;;;;;;5011572;28;20405;-74
2022/08/27 10:37:20;;;;;;;8.15;1.70;;;20.00;99.90;;;;;;4999591;28;20111;-75
2022/08/27 10:39:49;;;;;;;10.43;2.30;;;20.00;99.90;;;;;;5011992;28;20544;-76
2022/08/27 10:42:36;;;;;;;5.78;1.50;;;19.90;99.90;;;;;;5010289;28;20120;-75
2022/08/27 10:45:14;;;;;;;10.65;2.00;;;19.90;99.90;;;;;;4994235;28;20412;-76
2022/08/27 10:47:46;;;;;;;7.25;1.50;;;19.90;99.90;;;;;;5004643;28;20054;-75
2022/08/27 10:50:38;;;;;;;9.57;1.63;;;20.00;99.90;;;;;;4997561;28;20121;-75
2022/08/27 10:53:18;;;;;;;9.20;1.67;;;20.30;99.90;;;;;;5010246;28;20362;-75
2022/08/27 10:55:59;;;;;;;10.93;1.60;;;20.40;99.90;;;;;;4994381;28;20038;-75
2022/08/27 10:58:28;;;;;;;12.10;1.85;;;20.40;99.90;;;;;;4997578;28;20099;-75
2022/08/27 11:01:09;;;;;;;9.20;2.03;;;20.30;99.90;;;;;;5010295;28;20046;-75
2022/08/27 11:03:48;;;;;;;6.63;2.00;;;20.30;99.90;;;;;;4993772;28;20583;-76
2022/08/27 11:06:29;;;;;;;10.60;2.00;;;20.30;99.90;;;;;;5011345;28;20041;-75
2022/08/27 11:09:12;;;;;;;7.18;1.80;;;20.20;99.90;;;;;;5009742;28;20053;-74
2022/08/27 11:11:48;;;;;;;8.55;1.73;;;20.10;99.90;;;;;;5010015;28;20042;-75
2022/08/27 11:14:37;;;;;;;7.80;1.60;;;20.10;99.90;;;;;;5011128;28;20046;-75
2022/08/27 11:17:29;;;;;;;12.85;1.70;;;20.10;99.90;;;;;;4994050;28;20044;-74
2022/08/27 11:20:17;;;;;;;8.32;1.70;;;20.20;99.90;;;;;;4989503;28;20038;-74
2022/08/27 11:22:51;;;;;;;8.00;1.60;;;20.40;99.90;;;;;;5000592;28;20128;-75
2022/08/27 11:25:45;;;;;;;8.27;1.60;;;20.80;99.90;;;;;;4998375;28;20042;-75
2022/08/27 11:28:12;;;;;;;8.68;1.63;;;21.00;99.90;;;;;;4988611;28;20046;-75
2022/08/27 11:30:47;;;;;;;8.13;1.65;;;21.30;99.90;;;;;;5003996;28;20041;-77
2022/08/27 11:33:39;;;;;;;8.43;1.83;;;21.50;99.90;;;;;;5006454;28;20042;-76
2022/08/27 11:36:41;;;;;;;8.88;2.17;;;21.70;99.90;;;;;;5001809;28;20103;-75
2022/08/27 11:39:29;;;;;;;13.80;2.28;;;21.50;99.90;;;;;;5001759;28;20052;-76
2022/08/27 11:42:04;;;;;;;6.22;1.48;;;21.40;99.90;;;;;;5001858;28;20049;-74
2022/08/27 11:44:30;;;;;;;9.48;1.80;;;21.30;99.90;;;;;;5008459;28;20049;-76
2022/08/27 11:47:09;;;;;;;7.30;1.35;;;21.40;99.90;;;;;;4988165;28;20045;-74
2022/08/27 11:49:54;;;;;;;10.00;2.08;;;21.60;99.90;;;;;;4984633;28;20165;-76
2022/08/27 11:52:52;;;;;;;8.43;1.50;;;21.70;99.90;;;;;;4982197;28;21129;-75
2022/08/27 11:55:20;;;;;;;11.73;1.80;;;21.80;99.90;;;;;;4999599;28;20149;-76
2022/08/27 11:58:03;;;;;;;7.80;1.60;;;22.00;99.90;;;;;;5013705;28;20117;-76
2022/08/27 12:00:32;;;;;;;11.55;1.85;;;21.90;99.90;;;;;;5004983;28;20097;-76
2022/08/27 12:03:23;;;;;;;7.30;1.95;;;21.90;99.90;;;;;;4985970;28;20125;-75
2022/08/27 12:05:52;;;;;;;7.95;1.58;;;21.70;99.90;;;;;;4999784;28;20119;-77
2022/08/27 12:08:20;;;;;;;7.85;1.70;;;21.60;99.90;;;;;;5005168;28;20030;-77
2022/08/27 12:10:46;;;;;;;8.65;2.15;;;21.50;99.90;;;;;;5002768;28;20488;-75
2022/08/27 12:13:32;;;;;;;7.18;1.83;;;21.30;99.90;;;;;;5003669;28;20041;-76
2022/08/27 12:16:34;;;;;;;9.38;1.60;;;21.20;99.90;;;;;;5004974;28;20034;-77
2022/08/27 12:19:05;;;;;;;6.10;1.50;;;21.10;99.90;;;;;;4952592;28;20042;-76
2022/08/27 12:21:39;;;;;;;4.88;1.45;;;21.40;99.90;;;;;;4993564;28;20054;-75
2022/08/27 12:24:12;;;;;;;8.15;1.67;;;21.50;99.90;;;;;;5002827;28;20041;-76
2022/08/27 12:26:41;;;;;;;7.38;1.70;;;20.90;99.90;;;;;;5015713;28;20057;-75
2022/08/27 12:29:40;;;;;;;8.00;1.67;;;21.40;99.90;;;;;;5009654;28;20042;-76
2022/08/27 12:32:25;;;;;;;8.75;1.80;;;21.30;99.90;;;;;;4990917;28;20452;-75
2022/08/27 12:35:16;;;;;;;6.05;1.50;;;21.20;99.90;;;;;;5008915;28;20042;-76
2022/08/27 12:37:53;;;;;;;7.47;1.48;;;21.10;99.90;;;;;;5006254;28;20500;-76
2022/08/27 12:40:27;;;;;;;6.95;1.33;;;21.30;99.90;;;;;;5008668;28;20049;-76
2022/08/27 12:43:13;;;;;;;7.13;1.48;;;21.70;99.90;;;;;;4990495;28;20524;-76
2022/08/27 12:45:56;;;;;;;8.20;1.48;;;22.00;99.90;;;;;;5010043;28;20116;-76
2022/08/27 12:48:56;;;;;;;6.72;1.60;;;22.20;99.90;;;;;;5007200;28;20500;-76
2022/08/27 12:51:35;;;;;;;9.07;1.90;;;22.30;99.90;;;;;;5000194;28;20141;-74
2022/08/27 12:54:05;;;;;;;7.75;1.65;;;22.20;99.90;;;;;;4980719;28;20477;-75
2022/08/27 12:56:51;;;;;;;6.57;1.40;;;22.30;99.90;;;;;;5008699;28;20045;-76
2022/08/27 12:59:45;;;;;;;6.15;1.42;;;21.60;99.90;;;;;;4995109;28;20080;-75
2022/08/27 13:02:39;;;;;;;4.60;1.30;;;21.80;99.90;;;;;;5011694;28;20046;-76
2022/08/27 13:05:08;;;;;;;7.40;1.27;;;21.80;99.90;;;;;;5012649;28;20553;-75
2022/08/27 13:07:40;;;;;;;7.80;1.50;;;21.90;99.90;;;;;;5012554;28;20065;-75
2022/08/27 13:10:14;;;;;;;7.13;1.50;;;22.10;99.90;;;;;;5011758;28;20125;-76
2022/08/27 13:12:42;;;;;;;5.88;1.60;;;22.60;99.90;;;;;;4993765;28;20083;-76